Time;durP1;ratioP1;P1;durP2;ratioP2;P2;SDS_P1;SDS_P2;PMS_P1;PMS_P2;Temp;Humidity;BMP_temperature;BMP_pressure;BME280_temperature;BME280_humidity;BME280_pressure;Samples;Min_cycle;Max_cycle;Signal;HPM_P1;HPM_P2
2022/01/20 00:03:34;;;;;;;;;;;;;;;21.21;28.33;96123.34;10431285;28;1929;-70
2022/01/20 00:40:12;;;;;;;;;;;;;;;21.12;28.29;96119.69;10431892;28;1977;-71
2022/01/20 00:45:13;;;;;;;;;;;;;;;21.14;28.20;96125.47;10430465;28;1957;-71
2022/01/20 00:50:14;;;;;;;;;;;;;;;21.12;28.34;96123.13;10431903;28;1950;-71
2022/01/20 00:55:14;;;;;;;;;;;;;;;21.13;28.19;96123.88;10426946;28;1961;-71
2022/01/20 01:00:15;;;;;;;;;;;;;;;21.11;28.13;96115.47;10412050;28;1973;-71
2022/01/20 01:05:16;;;;;;;;;;;;;;;21.10;28.05;96121.81;10430842;28;1945;-71
2022/01/20 01:10:18;;;;;;;;;;;;;;;21.09;28.22;96128.91;10413073;28;1966;-70
2022/01/20 01:15:29;;;;;;;;;;;;;;;21.07;28.34;96128.38;10416614;28;1935;-70
2022/01/20 01:20:32;;;;;;;;;;;;;;;21.09;28.21;96131.53;10412272;28;2114;-71
2022/01/20 01:25:33;;;;;;;;;;;;;;;21.13;28.11;96134.44;10422385;28;2381;-71
2022/01/20 01:30:53;;;;;;;;;;;;;;;21.10;27.88;96133.13;10434070;28;2092;-71
2022/01/20 01:35:57;;;;;;;;;;;;;;;21.13;27.84;96121.25;10426841;28;1978;-72
2022/01/20 01:40:57;;;;;;;;;;;;;;;21.16;27.91;96118.09;10427862;28;2012;-71
2022/01/20 01:46:00;;;;;;;;;;;;;;;21.13;27.77;96111.50;10426807;28;2020;-71
2022/01/20 01:51:01;;;;;;;;;;;;;;;21.11;27.71;96112.81;10427420;28;1994;-72
2022/01/20 01:56:01;;;;;;;;;;;;;;;21.15;28.00;96116.50;10431987;28;2084;-71
2022/01/20 02:01:02;;;;;;;;;;;;;;;21.17;27.80;96104.63;10435914;28;1943;-70
2022/01/20 02:22:02;;;;;;;;;;;;;;;21.10;27.69;96100.72;10413985;28;1881;-70
2022/01/20 02:27:04;;;;;;;;;;;;;;;21.07;27.73;96102.03;10427995;28;1854;-71
2022/01/20 02:32:05;;;;;;;;;;;;;;;21.11;27.74;96097.00;10428922;28;1888;-71
2022/01/20 02:37:10;;;;;;;;;;;;;;;21.09;27.64;96094.66;10429133;28;1964;-71
2022/01/20 02:47:33;;;;;;;;;;;;;;;21.05;27.61;96091.75;10429539;28;1951;-70
2022/01/20 02:52:34;;;;;;;;;;;;;;;21.05;27.58;96089.13;10431397;28;1911;-71
2022/01/20 02:57:34;;;;;;;;;;;;;;;21.04;27.55;96086.78;10401922;28;1860;-70
2022/01/20 03:02:34;;;;;;;;;;;;;;;21.02;27.45;96068.56;10410620;28;1971;-71
2022/01/20 03:07:35;;;;;;;;;;;;;;;21.01;27.56;96066.97;10430889;28;1952;-71
2022/01/20 03:12:35;;;;;;;;;;;;;;;21.05;27.34;96068.03;10410267;28;1932;-71
2022/01/20 03:17:35;;;;;;;;;;;;;;;21.02;27.59;96060.66;10427302;28;1982;-69
2022/01/20 03:22:36;;;;;;;;;;;;;;;21.00;27.75;96054.84;10411838;28;1932;-71
2022/01/20 03:27:36;;;;;;;;;;;;;;;20.99;27.64;96053.28;10426430;28;1901;-70
2022/01/20 03:32:37;;;;;;;;;;;;;;;21.01;27.54;96061.69;10416238;28;1892;-71
2022/01/20 03:37:37;;;;;;;;;;;;;;;20.96;27.74;96072.25;10412437;28;2033;-71
2022/01/20 03:42:37;;;;;;;;;;;;;;;21.01;27.66;96079.34;10432003;28;1972;-72
2022/01/20 03:47:38;;;;;;;;;;;;;;;21.02;27.53;96078.31;10434225;28;2033;-70
2022/01/20 03:52:38;;;;;;;;;;;;;;;21.03;27.50;96080.69;10437957;28;1951;-71
2022/01/20 03:57:39;;;;;;;;;;;;;;;21.00;27.49;96086.47;10436701;28;1388;-72
2022/01/20 04:02:40;;;;;;;;;;;;;;;21.01;27.41;96093.31;10416142;28;2307;-71
2022/01/20 04:07:40;;;;;;;;;;;;;;;20.99;27.41;96105.19;10433422;28;2300;-69
2022/01/20 04:12:41;;;;;;;;;;;;;;;21.01;27.48;96092.53;10435026;28;1999;-70
2022/01/20 04:17:44;;;;;;;;;;;;;;;20.99;27.45;96100.72;10433193;28;1968;-72
2022/01/20 04:22:44;;;;;;;;;;;;;;;21.04;27.67;96097.31;10410668;28;1943;-72
2022/01/20 04:27:44;;;;;;;;;;;;;;;21.03;27.45;96090.44;10432723;28;2438;-69
2022/01/20 04:32:45;;;;;;;;;;;;;;;21.03;27.51;96083.34;10442546;28;1904;-70
2022/01/20 04:37:48;;;;;;;;;;;;;;;21.02;27.44;96078.31;10431530;28;1918;-69
2022/01/20 04:42:50;;;;;;;;;;;;;;;21.00;27.28;96081.19;10411611;28;2174;-69
2022/01/20 04:58:22;;;;;;;;;;;;;;;20.95;27.32;96078.59;10439148;28;1864;-67
2022/01/20 05:03:24;;;;;;;;;;;;;;;20.94;27.33;96079.63;10435991;28;1993;-69
2022/01/20 05:08:28;;;;;;;;;;;;;;;20.96;27.49;96097.81;10432869;28;1896;-68
2022/01/20 05:13:37;;;;;;;;;;;;;;;20.95;27.40;96080.44;10415770;28;1954;-69
2022/01/20 05:18:38;;;;;;;;;;;;;;;20.95;27.22;96078.59;10417225;28;1946;-69
2022/01/20 05:23:38;;;;;;;;;;;;;;;20.95;27.23;96077.78;10434591;28;1972;-70
2022/01/20 05:28:39;;;;;;;;;;;;;;;20.92;27.31;96076.47;10429648;28;1910;-70
2022/01/20 05:33:39;;;;;;;;;;;;;;;20.91;27.45;96080.19;10428448;28;1898;-70
2022/01/20 05:38:39;;;;;;;;;;;;;;;20.92;27.38;96067.78;10413726;28;2342;-71
2022/01/20 05:43:40;;;;;;;;;;;;;;;20.92;27.42;96079.09;10431515;28;2104;-70
2022/01/20 05:48:46;;;;;;;;;;;;;;;20.92;27.46;96073.84;10436459;28;1948;-70
2022/01/20 05:53:47;;;;;;;;;;;;;;;20.93;27.20;96062.25;10418446;28;1966;-70
2022/01/20 05:58:47;;;;;;;;;;;;;;;20.93;27.45;96077.28;10415408;28;2013;-71
2022/01/20 06:03:49;;;;;;;;;;;;;;;20.95;27.40;96081.22;10432684;28;1935;-69
2022/01/20 06:08:49;;;;;;;;;;;;;;;21.00;27.06;96090.94;10430114;28;1869;-70
2022/01/20 06:13:50;;;;;;;;;;;;;;;20.95;27.19;96085.69;10430587;28;1918;-70
2022/01/20 06:18:50;;;;;;;;;;;;;;;20.95;27.37;96077.78;10412064;28;1858;-70
2022/01/20 06:23:51;;;;;;;;;;;;;;;20.98;27.31;96087.78;10427713;28;1898;-70
2022/01/20 06:28:51;;;;;;;;;;;;;;;20.97;27.36;96097.56;10423882;28;1844;-70
2022/01/20 06:33:51;;;;;;;;;;;;;;;20.98;27.17;96093.84;10434789;28;1913;-70
2022/01/20 06:38:52;;;;;;;;;;;;;;;20.96;27.11;96090.69;10426568;28;2000;-69
2022/01/20 06:43:52;;;;;;;;;;;;;;;20.97;27.20;96080.94;10444138;28;2260;-69
2022/01/20 06:48:53;;;;;;;;;;;;;;;20.98;27.27;96075.41;10427357;28;2064;-70
2022/01/20 06:53:53;;;;;;;;;;;;;;;20.98;27.14;96072.75;10422197;28;2075;-69
2022/01/20 06:58:54;;;;;;;;;;;;;;;20.94;27.21;96079.63;10422181;28;1880;-72
2022/01/20 07:03:54;;;;;;;;;;;;;;;21.00;27.13;96080.41;10423068;28;1972;-71
2022/01/20 07:08:55;;;;;;;;;;;;;;;20.97;27.47;96079.09;10428511;28;1957;-69
2022/01/20 07:13:55;;;;;;;;;;;;;;;20.92;27.62;96086.22;10429071;28;1916;-71
2022/01/20 07:18:56;;;;;;;;;;;;;;;20.94;27.52;96084.91;10407243;28;1900;-73
2022/01/20 07:23:56;;;;;;;;;;;;;;;20.97;27.41;96076.47;10410990;28;1982;-74
2022/01/20 07:28:57;;;;;;;;;;;;;;;20.95;27.93;96078.59;10430773;28;1953;-73
2022/01/20 07:33:57;;;;;;;;;;;;;;;20.93;28.05;96085.19;10429087;28;1929;-72
2022/01/20 07:38:57;;;;;;;;;;;;;;;20.94;28.20;96095.44;10409319;28;1939;-72
2022/01/20 07:43:58;;;;;;;;;;;;;;;21.07;27.75;96099.41;10433135;28;1977;-73
2022/01/20 07:48:58;;;;;;;;;;;;;;;21.16;27.88;96115.47;10414956;28;1935;-75
2022/01/20 07:53:58;;;;;;;;;;;;;;;21.26;27.47;96120.69;10412545;28;1951;-69
2022/01/20 07:58:59;;;;;;;;;;;;;;;21.37;26.73;96106.44;10428582;28;1910;-71
2022/01/20 08:03:59;;;;;;;;;;;;;;;21.46;26.96;96120.63;10418872;28;2171;-72
2022/01/20 08:08:59;;;;;;;;;;;;;;;21.52;26.66;96130.09;10415558;28;1927;-73
2022/01/20 08:14:00;;;;;;;;;;;;;;;21.59;25.87;96125.31;10432422;28;1993;-74
2022/01/20 08:19:00;;;;;;;;;;;;;;;21.67;26.67;96137.94;10430692;28;1990;-73
2022/01/20 08:24:01;;;;;;;;;;;;;;;21.69;25.81;96139.25;10431360;28;2062;-74
2022/01/20 08:29:01;;;;;;;;;;;;;;;21.66;25.36;96137.16;10432373;28;2082;-73
2022/01/20 08:34:02;;;;;;;;;;;;;;;21.69;25.56;96141.09;10436683;28;2025;-73
2022/01/20 08:39:02;;;;;;;;;;;;;;;21.68;25.15;96147.44;10426533;28;1979;-73
2022/01/20 08:44:03;;;;;;;;;;;;;;;21.72;25.31;96145.84;10435017;28;1973;-72
2022/01/20 08:49:03;;;;;;;;;;;;;;;21.68;25.15;96150.06;10430188;28;1963;-72
2022/01/20 08:54:04;;;;;;;;;;;;;;;21.73;25.61;96163.25;10428360;28;1908;-73
2022/01/20 08:59:08;;;;;;;;;;;;;;;21.71;25.80;96183.84;10429642;28;1869;-73
2022/01/20 09:04:08;;;;;;;;;;;;;;;21.70;25.67;96182.28;10424594;28;2215;-71
2022/01/20 09:09:08;;;;;;;;;;;;;;;21.77;25.96;96185.38;10427155;28;1979;-73
2022/01/20 09:19:28;;;;;;;;;;;;;;;21.74;25.52;96170.13;10432713;28;1906;-73
2022/01/20 09:24:28;;;;;;;;;;;;;;;21.71;25.56;96179.34;10429545;28;1853;-70
2022/01/20 09:29:29;;;;;;;;;;;;;;;21.81;25.50;96186.44;10423678;28;1966;-72
2022/01/20 09:34:29;;;;;;;;;;;;;;;21.78;25.45;96189.63;10403032;28;1873;-70
2022/01/20 09:39:30;;;;;;;;;;;;;;;21.75;25.35;96192.78;10427695;28;1971;-73
2022/01/20 09:44:31;;;;;;;;;;;;;;;21.72;24.90;96209.19;10432560;28;1928;-72
2022/01/20 09:49:32;;;;;;;;;;;;;;;21.71;25.04;96197.03;10429459;28;1921;-74
2022/01/20 09:54:32;;;;;;;;;;;;;;;21.70;24.70;96184.91;10429089;28;1973;-71
2022/01/20 09:59:33;;;;;;;;;;;;;;;21.84;25.80;96185.94;10425340;28;1969;-72
2022/01/20 10:04:35;;;;;;;;;;;;;;;21.91;25.67;96196.19;10430865;28;1936;-73
2022/01/20 10:09:39;;;;;;;;;;;;;;;21.86;25.13;96197.00;10431812;28;1974;-74
2022/01/20 10:14:42;;;;;;;;;;;;;;;21.78;24.97;96208.88;10427260;28;1860;-72
2022/01/20 10:19:43;;;;;;;;;;;;;;;21.74;24.44;96214.97;10427413;28;1969;-73
2022/01/20 10:24:59;;;;;;;;;;;;;;;21.76;24.54;96210.97;10427295;28;1958;-71
2022/01/20 10:30:07;;;;;;;;;;;;;;;21.73;24.98;96195.72;10424083;28;1998;-72
2022/01/20 10:35:08;;;;;;;;;;;;;;;21.77;24.86;96195.94;10410095;28;1927;-73
2022/01/20 10:40:13;;;;;;;;;;;;;;;21.71;25.06;96191.75;10421719;28;2003;-72
2022/01/20 10:45:27;;;;;;;;;;;;;;;21.75;24.99;96198.06;10435269;28;1892;-74
2022/01/20 10:50:29;;;;;;;;;;;;;;;21.75;24.93;96192.78;10434047;28;1928;-72
2022/01/20 10:55:30;;;;;;;;;;;;;;;21.76;24.86;96194.38;10415645;28;1970;-71
2022/01/20 11:00:31;;;;;;;;;;;;;;;21.75;24.62;96175.13;10432910;28;1902;-74
2022/01/20 11:05:31;;;;;;;;;;;;;;;21.90;25.42;96187.50;10439020;28;1861;-72
2022/01/20 11:10:31;;;;;;;;;;;;;;;21.90;25.35;96184.84;10417767;28;1885;-70
2022/01/20 11:15:32;;;;;;;;;;;;;;;21.88;25.47;96174.53;10440396;28;1943;-74
2022/01/20 11:20:39;;;;;;;;;;;;;;;21.90;25.04;96174.28;10438309;28;1997;-74
2022/01/20 11:25:40;;;;;;;;;;;;;;;21.89;25.75;96170.06;10440314;28;1968;-74
2022/01/20 11:30:42;;;;;;;;;;;;;;;21.89;25.18;96148.94;10427181;28;1915;-73
2022/01/20 11:35:42;;;;;;;;;;;;;;;21.88;25.47;96156.06;10423294;28;1889;-75
2022/01/20 11:41:03;;;;;;;;;;;;;;;21.98;27.68;96142.03;10435727;28;1969;-75
2022/01/20 11:46:04;;;;;;;;;;;;;;;22.02;28.43;96135.16;10435846;28;1869;-73
2022/01/20 11:51:05;;;;;;;;;;;;;;;21.93;27.84;96120.94;10428300;28;1938;-74
2022/01/20 11:56:05;;;;;;;;;;;;;;;21.80;27.74;96127.56;10438034;28;1884;-74
2022/01/20 12:01:09;;;;;;;;;;;;;;;21.73;27.97;96113.91;10417849;28;1982;-74
2022/01/20 12:06:14;;;;;;;;;;;;;;;21.66;27.92;96115.25;10429889;28;2037;-72
2022/01/20 12:11:15;;;;;;;;;;;;;;;21.58;27.91;96121.09;10429023;28;1925;-74
2022/01/20 12:16:19;;;;;;;;;;;;;;;21.50;27.93;96116.38;10439769;28;1900;-73
2022/01/20 12:21:20;;;;;;;;;;;;;;;21.58;28.03;96107.91;10449071;28;2019;-72
2022/01/20 12:26:20;;;;;;;;;;;;;;;21.66;27.87;96094.13;10445691;28;1573;-75
2022/01/20 12:31:20;;;;;;;;;;;;;;;21.71;27.84;96094.94;10444803;28;1871;-72
2022/01/20 12:36:21;;;;;;;;;;;;;;;21.78;26.55;96082.19;10434750;28;2018;-72
2022/01/20 12:41:22;;;;;;;;;;;;;;;21.85;26.74;96087.22;10427521;28;1994;-72
2022/01/20 12:46:23;;;;;;;;;;;;;;;21.90;26.51;96066.09;10431363;28;1993;-72
2022/01/20 12:51:36;;;;;;;;;;;;;;;21.93;26.44;96067.38;10416749;28;2056;-73
2022/01/20 12:56:37;;;;;;;;;;;;;;;21.93;25.94;96078.72;10418922;28;2025;-70
2022/01/20 13:01:38;;;;;;;;;;;;;;;21.91;25.53;96075.56;10410117;28;1970;-72
2022/01/20 13:06:40;;;;;;;;;;;;;;;21.93;25.48;96078.72;10412576;28;1920;-72
2022/01/20 13:12:02;;;;;;;;;;;;;;;21.93;25.38;96091.91;10431760;28;1939;-72
2022/01/20 13:17:02;;;;;;;;;;;;;;;21.91;25.95;96086.13;10432314;28;1907;-72
2022/01/20 13:22:04;;;;;;;;;;;;;;;21.97;26.58;96077.09;10427425;28;2066;-73
2022/01/20 13:27:05;;;;;;;;;;;;;;;21.97;26.93;96086.91;10410161;28;1924;-76
2022/01/20 13:32:06;;;;;;;;;;;;;;;21.99;26.60;96077.63;10434132;28;1869;-73
2022/01/20 13:37:12;;;;;;;;;;;;;;;21.98;25.78;96057.56;10417946;28;1886;-74
2022/01/20 13:47:47;;;;;;;;;;;;;;;21.96;26.19;96064.97;10395271;28;1868;-74
2022/01/20 13:52:47;;;;;;;;;;;;;;;21.96;26.34;96067.63;10421910;28;2043;-70
2022/01/20 13:57:48;;;;;;;;;;;;;;;21.90;25.08;96076.63;10408029;28;1897;-71
2022/01/20 14:02:50;;;;;;;;;;;;;;;21.92;25.05;96081.63;10422083;28;2000;-69
2022/01/20 14:07:50;;;;;;;;;;;;;;;21.89;24.93;96085.59;10422202;28;1909;-71
2022/01/20 14:12:51;;;;;;;;;;;;;;;21.91;25.21;96094.03;10424925;28;1927;-70
2022/01/20 14:17:54;;;;;;;;;;;;;;;21.88;25.44;96107.78;10426329;28;2051;-70
2022/01/20 14:22:54;;;;;;;;;;;;;;;21.87;25.01;96106.19;10432214;28;2025;-70
2022/01/20 14:27:55;;;;;;;;;;;;;;;21.85;24.97;96103.84;10427580;28;2048;-70
2022/01/20 14:32:56;;;;;;;;;;;;;;;21.89;25.39;96109.34;10412780;28;2069;-71
2022/01/20 14:37:58;;;;;;;;;;;;;;;21.91;25.73;96109.88;10427402;28;1931;-70
2022/01/20 14:42:58;;;;;;;;;;;;;;;21.98;26.48;96105.09;10414559;28;1957;-71
2022/01/20 14:47:59;;;;;;;;;;;;;;;21.92;25.46;96108.81;10417274;28;2028;-73
2022/01/20 14:53:00;;;;;;;;;;;;;;;21.99;25.81;96121.72;10405561;28;1965;-73
2022/01/20 14:58:00;;;;;;;;;;;;;;;21.88;25.49;96108.56;10425230;28;1967;-70
2022/01/20 15:03:01;;;;;;;;;;;;;;;21.87;25.28;96116.75;10426413;28;2010;-69
2022/01/20 15:08:01;;;;;;;;;;;;;;;21.84;25.34;96125.22;10428357;28;1868;-72
2022/01/20 15:13:02;;;;;;;;;;;;;;;21.88;25.36;96139.47;10412117;28;1943;-70
2022/01/20 15:18:02;;;;;;;;;;;;;;;21.91;25.59;96160.00;10429247;28;1917;-72
2022/01/20 15:23:03;;;;;;;;;;;;;;;21.93;26.57;96189.56;10427044;28;1937;-73
2022/01/20 15:28:03;;;;;;;;;;;;;;;22.02;26.74;96201.16;10432582;28;2074;-72
2022/01/20 15:33:04;;;;;;;;;;;;;;;22.03;26.60;96205.34;10434168;28;1970;-71
2022/01/20 15:38:04;;;;;;;;;;;;;;;22.07;26.42;96189.78;10432439;28;1949;-72
2022/01/20 15:43:05;;;;;;;;;;;;;;;21.94;25.55;96185.88;10426339;28;1932;-69
2022/01/20 15:48:06;;;;;;;;;;;;;;;21.94;25.66;96196.44;10434960;28;1925;-70
2022/01/20 15:53:06;;;;;;;;;;;;;;;21.93;25.46;96202.75;10432030;28;1979;-69
2022/01/20 15:58:07;;;;;;;;;;;;;;;21.91;25.41;96212.81;10437909;28;1897;-72
2022/01/20 16:03:08;;;;;;;;;;;;;;;21.89;25.44;96207.00;10429215;28;1960;-72
2022/01/20 16:08:08;;;;;;;;;;;;;;;21.95;25.47;96213.06;10435850;28;1675;-70
2022/01/20 16:13:09;;;;;;;;;;;;;;;21.95;25.84;96218.34;10432147;28;1984;-70
2022/01/20 16:18:12;;;;;;;;;;;;;;;21.94;25.23;96228.13;10419531;28;1962;-72
2022/01/20 16:23:13;;;;;;;;;;;;;;;21.94;25.07;96220.19;10433344;28;1940;-72
2022/01/20 16:28:14;;;;;;;;;;;;;;;21.93;25.61;96221.25;10432759;28;2002;-74
2022/01/20 16:33:14;;;;;;;;;;;;;;;21.96;25.00;96223.34;10433106;28;1939;-74
2022/01/20 16:38:15;;;;;;;;;;;;;;;21.94;25.14;96222.84;10410190;28;1884;-73
2022/01/20 16:43:15;;;;;;;;;;;;;;;21.96;24.97;96226.00;10417033;28;1969;-73
2022/01/20 16:48:16;;;;;;;;;;;;;;;21.98;25.45;96226.50;10430412;28;1984;-71
2022/01/20 16:53:17;;;;;;;;;;;;;;;21.97;24.99;96245.28;10430174;28;1978;-72
2022/01/20 16:58:17;;;;;;;;;;;;;;;21.95;25.26;96256.06;10417023;28;1938;-73
2022/01/20 17:03:18;;;;;;;;;;;;;;;21.96;24.80;96260.31;10416063;28;2040;-75
2022/01/20 17:08:19;;;;;;;;;;;;;;;21.97;24.75;96264.50;10427554;28;1857;-71
2022/01/20 17:13:19;;;;;;;;;;;;;;;21.98;25.25;96263.47;10404843;28;1781;-74
2022/01/20 17:18:20;;;;;;;;;;;;;;;21.94;24.55;96262.44;10427353;28;1946;-75
2022/01/20 17:23:23;;;;;;;;;;;;;;;21.90;24.70;96279.88;10428273;28;2079;-77
2022/01/20 17:28:23;;;;;;;;;;;;;;;21.82;24.26;96294.38;10422305;28;1960;-75
2022/01/20 17:33:24;;;;;;;;;;;;;;;21.80;24.50;96301.75;10427886;28;1836;-75
2022/01/20 17:38:24;;;;;;;;;;;;;;;21.80;24.74;96304.38;10423072;28;1914;-77
2022/01/20 17:43:25;;;;;;;;;;;;;;;21.74;24.49;96297.53;10405249;28;1939;-76
2022/01/20 17:48:25;;;;;;;;;;;;;;;21.79;24.32;96309.94;10426841;28;1945;-74
2022/01/20 17:53:25;;;;;;;;;;;;;;;21.85;24.48;96330.00;10414680;28;1942;-75
2022/01/20 17:58:26;;;;;;;;;;;;;;;21.84;24.47;96313.38;10412699;28;1888;-75
2022/01/20 18:03:26;;;;;;;;;;;;;;;21.85;24.40;96300.97;10429778;28;2040;-75
2022/01/20 18:08:27;;;;;;;;;;;;;;;21.83;24.45;96295.97;10429264;28;2032;-73
2022/01/20 18:13:27;;;;;;;;;;;;;;;21.82;24.75;96307.56;10428285;28;1903;-74
2022/01/20 18:18:29;;;;;;;;;;;;;;;21.91;25.02;96309.69;10411555;28;1889;-74
2022/01/20 18:23:30;;;;;;;;;;;;;;;21.91;25.60;96312.34;10423854;28;2008;-73
2022/01/20 18:28:31;;;;;;;;;;;;;;;21.85;26.11;96327.38;10432395;28;1850;-75
2022/01/20 18:33:31;;;;;;;;;;;;;;;21.74;25.87;96317.88;10417082;28;1929;-76
2022/01/20 18:38:32;;;;;;;;;;;;;;;21.74;25.84;96320.53;10432642;28;1869;-74
2022/01/20 18:43:32;;;;;;;;;;;;;;;21.69;26.50;96312.59;10414824;28;1978;-75
2022/01/20 18:48:33;;;;;;;;;;;;;;;21.66;26.63;96318.41;10431788;28;2021;-74
2022/01/20 18:53:34;;;;;;;;;;;;;;;21.63;25.88;96322.38;10429637;28;1922;-77
2022/01/20 18:58:36;;;;;;;;;;;;;;;21.61;26.30;96315.78;10418316;28;1869;-77
2022/01/20 19:03:37;;;;;;;;;;;;;;;21.67;26.80;96314.72;10423253;28;2036;-77
2022/01/20 19:08:37;;;;;;;;;;;;;;;21.68;26.24;96308.38;10392769;28;1933;-75
2022/01/20 19:13:38;;;;;;;;;;;;;;;21.71;26.50;96334.22;10415003;28;1856;-74
2022/01/20 19:18:40;;;;;;;;;;;;;;;21.66;25.63;96339.50;10422833;28;1900;-72
2022/01/20 19:23:40;;;;;;;;;;;;;;;21.68;25.62;96342.66;10434094;28;1973;-74
2022/01/20 19:28:41;;;;;;;;;;;;;;;21.70;25.84;96357.19;10436477;28;1900;-74
2022/01/20 19:33:41;;;;;;;;;;;;;;;21.74;25.66;96357.47;10438973;28;1976;-73
2022/01/20 19:38:42;;;;;;;;;;;;;;;21.75;26.03;96370.38;10432215;28;1934;-75
2022/01/20 19:43:42;;;;;;;;;;;;;;;21.79;25.19;96366.16;10394619;28;1968;-76
2022/01/20 19:48:43;;;;;;;;;;;;;;;21.79;25.73;96354.81;10429890;28;1974;-72
2022/01/20 19:53:43;;;;;;;;;;;;;;;21.86;24.76;96369.31;10434785;28;2087;-70
2022/01/20 19:58:44;;;;;;;;;;;;;;;21.88;25.79;96368.28;10411629;28;1884;-73
2022/01/20 20:03:46;;;;;;;;;;;;;;;21.86;24.93;96369.31;10433541;28;2002;-73
2022/01/20 20:08:46;;;;;;;;;;;;;;;21.87;25.04;96364.84;10431614;28;1943;-73
2022/01/20 20:13:48;;;;;;;;;;;;;;;21.88;24.88;96360.38;10427043;28;2103;-73
2022/01/20 20:18:48;;;;;;;;;;;;;;;21.88;24.78;96361.94;10437122;28;1956;-71
2022/01/20 20:23:49;;;;;;;;;;;;;;;21.91;25.35;96368.53;10432513;28;1974;-73
2022/01/20 20:28:51;;;;;;;;;;;;;;;21.88;25.03;96363.81;10428939;28;2008;-75
2022/01/20 20:33:51;;;;;;;;;;;;;;;21.87;25.40;96383.31;10428205;28;1911;-74
2022/01/20 20:38:51;;;;;;;;;;;;;;;21.84;25.41;96389.16;10432862;28;1975;-74
2022/01/20 20:43:52;;;;;;;;;;;;;;;21.92;25.42;96396.53;10420538;28;1898;-73
2022/01/20 20:48:52;;;;;;;;;;;;;;;21.99;26.01;96396.25;10429322;28;2083;-75
2022/01/20 20:53:53;;;;;;;;;;;;;;;22.01;26.61;96404.69;10429301;28;1997;-74
2022/01/20 20:58:53;;;;;;;;;;;;;;;22.02;26.46;96404.44;10430555;28;1955;-75
2022/01/20 21:03:54;;;;;;;;;;;;;;;22.04;26.61;96399.66;10422794;28;1967;-74
2022/01/20 21:08:54;;;;;;;;;;;;;;;22.02;27.11;96399.16;10431859;28;1939;-77
2022/01/20 21:13:56;;;;;;;;;;;;;;;22.04;27.73;96407.59;10409243;28;1797;-73
2022/01/20 21:18:56;;;;;;;;;;;;;;;22.04;27.36;96415.50;10434803;28;1994;-74
2022/01/20 21:23:57;;;;;;;;;;;;;;;22.04;27.07;96420.00;10422763;28;1967;-72
2022/01/20 21:28:57;;;;;;;;;;;;;;;22.04;27.45;96433.19;10425380;28;1968;-72
2022/01/20 21:34:00;;;;;;;;;;;;;;;22.02;27.11;96437.94;10437627;28;2002;-72
2022/01/20 21:39:00;;;;;;;;;;;;;;;22.02;27.08;96448.50;10432715;28;1979;-72
2022/01/20 21:44:01;;;;;;;;;;;;;;;22.02;27.03;96451.16;10425415;28;1951;-72
2022/01/20 21:49:01;;;;;;;;;;;;;;;22.03;26.91;96463.31;10428227;28;1931;-73
2022/01/20 21:54:02;;;;;;;;;;;;;;;22.03;26.62;96472.00;10427006;28;1880;-73
2022/01/20 21:59:02;;;;;;;;;;;;;;;22.02;26.53;96478.34;10424044;28;1987;-72
2022/01/20 22:04:03;;;;;;;;;;;;;;;22.02;26.06;96478.34;10425887;28;1973;-73
2022/01/20 22:09:04;;;;;;;;;;;;;;;22.00;26.53;96475.19;10423787;28;1943;-73
2022/01/20 22:14:04;;;;;;;;;;;;;;;22.01;26.37;96494.47;10427980;28;1888;-73
2022/01/20 22:19:05;;;;;;;;;;;;;;;22.01;26.27;96489.19;10422553;28;1945;-72
2022/01/20 22:24:06;;;;;;;;;;;;;;;22.00;26.04;96477.03;10423151;28;1924;-73
2022/01/20 22:29:06;;;;;;;;;;;;;;;22.00;26.08;96493.66;10425486;28;1917;-72
2022/01/20 22:34:07;;;;;;;;;;;;;;;21.98;25.32;96498.41;10402875;28;1956;-73
2022/01/20 22:39:07;;;;;;;;;;;;;;;21.98;26.01;96493.13;10409120;28;1963;-72
2022/01/20 22:44:08;;;;;;;;;;;;;;;21.98;25.79;96494.97;10423108;28;1976;-71
2022/01/20 22:49:11;;;;;;;;;;;;;;;21.95;25.77;96503.44;10423984;28;1908;-72
2022/01/20 22:54:11;;;;;;;;;;;;;;;21.91;25.47;96510.31;10430543;28;1952;-72
2022/01/20 22:59:12;;;;;;;;;;;;;;;21.91;25.74;96508.44;10431614;28;1885;-71
2022/01/20 23:04:13;;;;;;;;;;;;;;;21.89;25.94;96502.63;10421165;28;1961;-72
2022/01/20 23:09:13;;;;;;;;;;;;;;;21.89;25.69;96529.00;10425937;28;1948;-72
2022/01/20 23:14:14;;;;;;;;;;;;;;;21.90;25.83;96527.97;10419602;28;1842;-72
2022/01/20 23:24:25;;;;;;;;;;;;;;;21.88;25.32;96538.78;10424932;28;1964;-73
2022/01/20 23:29:25;;;;;;;;;;;;;;;21.89;25.49;96536.94;10413248;28;1966;-72
2022/01/20 23:34:26;;;;;;;;;;;;;;;21.88;25.32;96533.50;10407687;28;2069;-72
2022/01/20 23:39:28;;;;;;;;;;;;;;;21.85;25.28;96551.72;10428212;28;1944;-73
2022/01/20 23:44:36;;;;;;;;;;;;;;;21.87;25.26;96554.88;10406559;28;2035;-72
2022/01/20 23:49:36;;;;;;;;;;;;;;;21.85;25.36;96536.69;10427754;28;1914;-73
2022/01/20 23:54:37;;;;;;;;;;;;;;;21.84;25.01;96555.41;10431689;28;1973;-73
2022/01/20 23:59:37;;;;;;;;;;;;;;;21.82;25.16;96549.63;10417328;28;1946;-73
